createdAt,value
2019-05-25T00:00:00.733Z,12.65
2019-05-25T00:02:08.090Z,12.63
2019-05-25T00:04:14.589Z,13.43
2019-05-25T00:06:21.213Z,13.98
2019-05-25T00:08:27.700Z,13.70
2019-05-25T00:10:34.239Z,12.82
2019-05-25T00:12:40.646Z,13.22
2019-05-25T00:14:47.038Z,14.05
2019-05-25T00:16:53.426Z,13.62
2019-05-25T00:18:59.886Z,14.10
2019-05-25T00:21:06.351Z,13.75
2019-05-25T00:23:12.778Z,13.78
2019-05-25T00:25:19.264Z,14.38
2019-05-25T00:27:25.716Z,14.15
2019-05-25T00:29:32.217Z,13.95
2019-05-25T00:31:38.790Z,14.20
2019-05-25T00:33:46.424Z,15.38
2019-05-25T00:35:53.193Z,14.28
2019-05-25T00:37:59.719Z,16.07
2019-05-25T00:40:08.627Z,15.30
2019-05-25T00:42:15.003Z,13.83
2019-05-25T00:44:21.435Z,14.30
2019-05-25T00:46:27.939Z,14.47
2019-05-25T00:48:34.431Z,13.98
2019-05-25T00:50:40.863Z,13.53
2019-05-25T00:52:47.564Z,13.50
2019-05-25T00:54:53.934Z,14.03
2019-05-25T00:57:00.528Z,14.13
2019-05-25T00:59:07.022Z,14.30
2019-05-25T01:01:13.421Z,14.78
2019-05-25T01:03:19.941Z,13.88
2019-05-25T01:05:26.383Z,13.85
2019-05-25T01:07:32.767Z,13.90
2019-05-25T01:09:39.262Z,13.55
2019-05-25T01:11:45.688Z,13.78
2019-05-25T01:13:52.119Z,14.78
2019-05-25T01:15:58.721Z,14.15
2019-05-25T01:18:05.309Z,14.28
2019-05-25T01:20:13.977Z,13.25
2019-05-25T01:22:20.465Z,14.03
2019-05-25T01:24:42.950Z,14.35
2019-05-25T01:26:35.177Z,13.90
2019-05-25T01:28:41.607Z,14.75
2019-05-25T01:30:48.018Z,15.15
2019-05-25T01:32:54.469Z,14.00
2019-05-25T01:35:00.939Z,13.25
2019-05-25T01:37:07.466Z,13.93
2019-05-25T01:39:13.961Z,12.63
2019-05-25T01:41:20.504Z,13.43
2019-05-25T01:43:26.932Z,13.08
2019-05-25T01:45:33.407Z,13.10
2019-05-25T01:47:39.839Z,13.55
2019-05-25T01:49:46.272Z,13.35
2019-05-25T01:51:52.688Z,14.30
2019-05-25T01:54:01.073Z,12.95
2019-05-25T01:56:07.561Z,13.68
2019-05-25T01:58:14.014Z,13.80
2019-05-25T02:00:22.539Z,14.30
2019-05-25T02:02:28.971Z,14.30
2019-05-25T02:04:35.338Z,14.70
2019-05-25T02:06:41.746Z,15.13
2019-05-25T02:08:48.240Z,15.48
2019-05-25T02:10:54.654Z,15.65
2019-05-25T02:13:01.068Z,15.65
2019-05-25T02:15:11.417Z,16.27
2019-05-25T02:17:17.800Z,16.30
2019-05-25T02:19:24.230Z,16.30
2019-05-25T02:21:30.732Z,15.83
2019-05-25T02:23:37.169Z,14.30
2019-05-25T02:25:45.504Z,15.58
2019-05-25T02:27:54.193Z,16.07
2019-05-25T02:30:00.613Z,15.80
2019-05-25T02:32:08.328Z,15.43
2019-05-25T02:34:14.745Z,16.02
2019-05-25T02:36:21.163Z,16.40
2019-05-25T02:38:28.000Z,16.40
2019-05-25T02:40:35.785Z,16.02
2019-05-25T02:42:42.194Z,15.75
2019-05-25T02:44:48.714Z,16.15
2019-05-25T02:46:55.145Z,16.17
2019-05-25T02:49:01.682Z,15.13
2019-05-25T02:51:08.184Z,16.32
2019-05-25T02:53:14.609Z,15.48
2019-05-25T02:55:33.773Z,15.38
2019-05-25T02:57:30.773Z,15.45
2019-05-25T02:59:37.211Z,15.72
2019-05-25T03:01:43.676Z,15.95
2019-05-25T03:03:50.547Z,16.50
2019-05-25T03:05:58.519Z,17.20
2019-05-25T03:08:05.359Z,15.85
2019-05-25T03:10:13.039Z,15.80
2019-05-25T03:12:20.541Z,16.27
2019-05-25T03:14:27.035Z,17.17
2019-05-25T03:16:33.558Z,16.07
2019-05-25T03:18:40.006Z,16.07
2019-05-25T03:20:48.810Z,15.88
2019-05-25T03:22:55.279Z,15.32
2019-05-25T03:25:01.765Z,15.45
2019-05-25T03:27:09.243Z,16.45
2019-05-25T03:29:15.665Z,16.10
2019-05-25T03:31:22.081Z,15.35
2019-05-25T03:33:29.592Z,15.90
2019-05-25T03:35:35.986Z,16.60
2019-05-25T03:37:42.384Z,16.93
2019-05-25T03:39:48.813Z,17.42
2019-05-25T03:41:55.224Z,16.57
2019-05-25T03:44:01.675Z,15.63
2019-05-25T03:46:08.051Z,16.27
2019-05-25T03:48:14.648Z,15.95
2019-05-25T03:50:21.227Z,16.45
2019-05-25T03:52:27.660Z,16.60
2019-05-25T03:54:34.119Z,16.23
2019-05-25T03:56:40.691Z,16.17
2019-05-25T03:58:47.112Z,16.48
2019-05-25T04:00:53.589Z,18.17
2019-05-25T04:02:59.984Z,15.13
2019-05-25T04:05:07.817Z,15.40
2019-05-25T04:07:14.224Z,14.20
2019-05-25T04:09:20.718Z,13.95
2019-05-25T04:11:27.168Z,12.65
2019-05-25T04:13:33.611Z,12.45
2019-05-25T04:15:39.989Z,12.45
2019-05-25T04:17:46.520Z,12.80
2019-05-25T04:19:52.967Z,12.53
2019-05-25T04:21:59.388Z,12.23
2019-05-25T04:24:06.538Z,13.55
2019-05-25T04:26:22.181Z,13.38
2019-05-25T04:28:21.078Z,12.98
2019-05-25T04:30:28.845Z,12.75
2019-05-25T04:32:35.309Z,12.33
2019-05-25T04:34:41.750Z,12.80
2019-05-25T04:36:48.177Z,12.73
2019-05-25T04:38:55.671Z,12.80
2019-05-25T04:41:02.081Z,12.93
2019-05-25T04:43:08.513Z,12.90
2019-05-25T04:45:16.557Z,12.47
2019-05-25T04:47:26.898Z,12.70
2019-05-25T04:49:31.301Z,11.75
2019-05-25T04:51:37.700Z,12.18
2019-05-25T04:53:44.404Z,11.43
2019-05-25T04:55:51.825Z,12.73
2019-05-25T04:57:59.766Z,11.05
2019-05-25T05:00:10.577Z,12.03
2019-05-25T05:02:17.014Z,10.50
2019-05-25T05:04:24.273Z,11.48
2019-05-25T05:06:30.723Z,10.82
2019-05-25T05:08:37.143Z,10.60
2019-05-25T05:10:44.505Z,10.53
2019-05-25T05:12:53.475Z,11.12
2019-05-25T05:14:59.934Z,10.50
2019-05-25T05:17:06.551Z,9.40
2019-05-25T05:19:13.041Z,8.90
2019-05-25T05:21:19.498Z,10.03
2019-05-25T05:23:26.870Z,10.25
2019-05-25T05:25:34.318Z,8.95
2019-05-25T05:27:40.719Z,8.40
2019-05-25T05:29:47.155Z,8.28
2019-05-25T05:31:53.579Z,8.03
2019-05-25T05:34:00.084Z,8.08
2019-05-25T05:36:07.853Z,8.70
2019-05-25T05:38:16.197Z,8.48
2019-05-25T05:40:25.675Z,7.97
2019-05-25T05:42:35.213Z,8.35
2019-05-25T05:44:45.773Z,8.48
2019-05-25T05:46:55.797Z,8.00
2019-05-25T05:49:03.828Z,8.60
2019-05-25T05:51:14.156Z,8.30
2019-05-25T05:53:23.358Z,9.03
2019-05-25T05:55:33.585Z,9.88
2019-05-25T05:57:40.029Z,8.75
2019-05-25T05:59:46.512Z,9.28
2019-05-25T06:01:54.493Z,7.92
2019-05-25T06:04:02.088Z,7.28
2019-05-25T06:06:08.739Z,7.08
2019-05-25T06:08:15.217Z,7.53
2019-05-25T06:10:23.067Z,7.47
2019-05-25T06:12:29.511Z,7.00
2019-05-25T06:14:35.905Z,6.50
2019-05-25T06:16:42.400Z,6.03
2019-05-25T06:18:48.911Z,5.97
2019-05-25T06:20:55.322Z,6.15
2019-05-25T06:23:01.809Z,5.40
2019-05-25T06:25:11.174Z,5.92
2019-05-25T06:27:27.041Z,6.10
2019-05-25T06:29:26.849Z,5.87
2019-05-25T06:31:33.243Z,6.40
2019-05-25T06:33:39.708Z,7.12
2019-05-25T06:35:48.167Z,5.70
2019-05-25T06:37:54.590Z,4.97
2019-05-25T06:40:01.830Z,6.10
2019-05-25T06:42:10.318Z,5.60
2019-05-25T06:44:18.114Z,5.45
2019-05-25T06:46:25.442Z,6.12
2019-05-25T06:48:31.986Z,6.62
2019-05-25T06:50:38.544Z,6.80
2019-05-25T06:52:44.980Z,6.67
2019-05-25T06:54:51.394Z,5.70
2019-05-25T06:56:57.845Z,4.80
2019-05-25T06:59:04.736Z,4.78
2019-05-25T07:01:11.326Z,4.30
2019-05-25T07:03:17.693Z,4.55
2019-05-25T07:05:24.140Z,4.50
2019-05-25T07:07:30.600Z,4.28
2019-05-25T07:09:37.676Z,4.12
2019-05-25T07:11:44.126Z,3.60
2019-05-25T07:13:50.610Z,3.77
2019-05-25T07:15:57.036Z,4.28
2019-05-25T07:18:03.680Z,5.45
2019-05-25T07:20:11.653Z,3.17
2019-05-25T07:22:18.023Z,3.30
2019-05-25T07:24:26.083Z,3.40
2019-05-25T07:26:32.488Z,3.35
2019-05-25T07:28:38.942Z,2.98
2019-05-25T07:30:46.711Z,3.52
2019-05-25T07:32:53.450Z,3.25
2019-05-25T07:34:59.800Z,3.15
2019-05-25T07:37:06.336Z,3.98
2019-05-25T07:39:12.850Z,3.47
2019-05-25T07:41:19.283Z,3.33
2019-05-25T07:43:25.706Z,3.35
2019-05-25T07:45:32.223Z,3.42
2019-05-25T07:47:38.899Z,3.77
2019-05-25T07:49:45.328Z,3.80
2019-05-25T07:51:51.746Z,4.00
2019-05-25T07:53:58.148Z,3.67
2019-05-25T07:56:04.507Z,3.00
2019-05-25T07:58:17.163Z,6.15
2019-05-25T08:00:20.756Z,3.77
2019-05-25T08:02:27.169Z,3.33
2019-05-25T08:04:33.656Z,3.17
2019-05-25T08:06:40.076Z,2.87
2019-05-25T08:08:46.693Z,2.58
2019-05-25T08:10:53.794Z,2.85
2019-05-25T08:13:00.332Z,3.22
2019-05-25T08:15:09.158Z,2.92
2019-05-25T08:17:15.518Z,3.17
2019-05-25T08:19:23.500Z,3.35
2019-05-25T08:21:29.963Z,3.30
2019-05-25T08:23:36.370Z,3.08
2019-05-25T08:25:42.855Z,2.85
2019-05-25T08:27:49.626Z,2.75
2019-05-25T08:29:56.125Z,3.00
2019-05-25T08:32:02.585Z,3.15
2019-05-25T08:34:09.154Z,2.90
2019-05-25T08:36:17.246Z,2.87
2019-05-25T08:38:23.929Z,4.15
2019-05-25T08:40:30.370Z,6.25
2019-05-25T08:42:36.822Z,3.20
2019-05-25T08:44:43.296Z,3.25
2019-05-25T08:46:49.717Z,2.85
2019-05-25T08:48:56.080Z,3.10
2019-05-25T08:51:02.511Z,3.40
2019-05-25T08:53:10.101Z,3.02
2019-05-25T08:55:16.983Z,2.67
2019-05-25T08:57:23.357Z,2.65
2019-05-25T08:59:29.825Z,3.50
2019-05-25T09:01:36.264Z,3.55
2019-05-25T09:03:44.277Z,3.40
2019-05-25T09:05:50.754Z,4.12
2019-05-25T09:07:57.175Z,3.37
2019-05-25T09:10:04.934Z,2.98
2019-05-25T09:12:11.385Z,3.30
2019-05-25T09:14:18.096Z,2.85
2019-05-25T09:16:24.715Z,3.00
2019-05-25T09:18:32.742Z,2.42
2019-05-25T09:20:39.216Z,3.20
2019-05-25T09:22:45.772Z,2.95
2019-05-25T09:24:53.381Z,3.25
2019-05-25T09:27:02.630Z,3.20
2019-05-25T09:29:10.986Z,2.98
2019-05-25T09:31:18.598Z,2.92
2019-05-25T09:33:25.016Z,3.30
2019-05-25T09:35:31.521Z,3.10
2019-05-25T09:37:37.989Z,2.60
2019-05-25T09:39:44.467Z,2.90
2019-05-25T09:41:52.999Z,3.37
2019-05-25T09:43:59.497Z,3.40
2019-05-25T09:46:06.111Z,3.33
2019-05-25T09:48:13.965Z,4.05
2019-05-25T09:50:22.643Z,3.37
2019-05-25T09:54:34.823Z,3.25
2019-05-25T09:56:43.067Z,3.60
2019-05-25T09:58:49.472Z,3.37
2019-05-25T10:00:56.129Z,3.27
2019-05-25T10:03:02.921Z,3.37
2019-05-25T10:05:11.726Z,3.22
2019-05-25T10:09:27.055Z,3.90
2019-05-25T10:11:35.407Z,3.65
2019-05-25T10:13:41.860Z,4.12
2019-05-25T10:15:52.027Z,4.25
2019-05-25T10:17:58.614Z,3.95
2019-05-25T10:20:08.258Z,4.08
2019-05-25T10:22:16.229Z,4.35
2019-05-25T10:24:22.967Z,3.90
2019-05-25T10:26:33.274Z,4.00
2019-05-25T10:28:39.768Z,4.70
2019-05-25T10:30:46.172Z,4.03
2019-05-25T10:32:52.611Z,4.15
2019-05-25T10:35:00.526Z,3.52
2019-05-25T10:37:08.948Z,4.00
2019-05-25T10:39:15.364Z,3.50
2019-05-25T10:41:21.768Z,4.72
2019-05-25T10:43:29.459Z,3.77
2019-05-25T10:45:36.004Z,3.95
2019-05-25T10:47:42.633Z,3.90
2019-05-25T10:49:50.074Z,4.40
2019-05-25T10:51:56.935Z,4.45
2019-05-25T10:54:03.331Z,4.53
2019-05-25T10:56:09.707Z,4.00
2019-05-25T10:58:16.210Z,3.75
2019-05-25T11:00:24.251Z,3.70
2019-05-25T11:02:30.736Z,4.12
2019-05-25T11:04:37.350Z,3.80
2019-05-25T11:06:43.869Z,3.77
2019-05-25T11:08:50.305Z,3.75
2019-05-25T11:10:56.745Z,4.47
2019-05-25T11:13:03.401Z,3.98
2019-05-25T11:15:10.690Z,3.62
2019-05-25T11:17:17.288Z,4.28
2019-05-25T11:19:24.512Z,4.05
2019-05-25T11:21:31.131Z,4.00
2019-05-25T11:23:37.526Z,3.90
2019-05-25T11:25:43.968Z,4.03
2019-05-25T11:27:51.450Z,3.60
2019-05-25T11:30:08.473Z,3.45
2019-05-25T11:32:08.973Z,3.25
2019-05-25T11:34:15.239Z,3.52
2019-05-25T11:36:21.647Z,3.05
2019-05-25T11:38:28.206Z,3.52
2019-05-25T11:40:34.814Z,3.62
2019-05-25T11:42:41.719Z,3.25
2019-05-25T11:44:48.212Z,2.85
2019-05-25T11:46:54.726Z,3.80
2019-05-25T11:49:01.201Z,4.20
2019-05-25T11:51:07.726Z,3.80
2019-05-25T11:53:14.238Z,3.45
2019-05-25T11:55:23.845Z,4.10
2019-05-25T11:57:30.297Z,4.33
2019-05-25T11:59:37.764Z,4.55
2019-05-25T12:01:44.284Z,3.87
2019-05-25T12:03:50.667Z,3.70
2019-05-25T12:05:57.113Z,3.45
2019-05-25T12:08:03.567Z,3.58
2019-05-25T12:10:11.261Z,4.03
2019-05-25T12:12:17.863Z,3.80
2019-05-25T12:14:24.282Z,4.12
2019-05-25T12:16:30.712Z,3.72
2019-05-25T12:18:37.309Z,4.15
2019-05-25T12:20:43.756Z,3.52
2019-05-25T12:22:50.476Z,4.37
2019-05-25T12:24:57.163Z,3.70
2019-05-25T12:27:03.711Z,4.00
2019-05-25T12:29:10.194Z,4.60
2019-05-25T12:31:17.727Z,3.75
2019-05-25T12:33:24.171Z,3.80
2019-05-25T12:35:30.614Z,4.35
2019-05-25T12:37:37.143Z,3.75
2019-05-25T12:39:43.691Z,3.87
2019-05-25T12:41:50.106Z,4.03
2019-05-25T12:43:56.613Z,3.72
2019-05-25T12:46:03.030Z,3.60
2019-05-25T12:48:09.390Z,3.75
2019-05-25T12:50:17.963Z,4.05
2019-05-25T12:52:24.492Z,3.37
2019-05-25T12:54:31.359Z,3.58
2019-05-25T12:56:37.932Z,3.22
2019-05-25T12:58:44.304Z,2.98
2019-05-25T13:00:56.109Z,4.30
2019-05-25T13:02:58.954Z,3.98
2019-05-25T13:05:07.651Z,3.85
2019-05-25T13:07:14.092Z,3.70
2019-05-25T13:09:20.536Z,4.30
2019-05-25T13:11:27.091Z,3.67
2019-05-25T13:13:33.556Z,3.35
2019-05-25T13:15:39.910Z,3.50
2019-05-25T13:17:46.410Z,3.40
2019-05-25T13:19:52.861Z,3.40
2019-05-25T13:21:59.350Z,3.70
2019-05-25T13:24:06.759Z,3.50
2019-05-25T13:26:13.139Z,3.90
2019-05-25T13:28:19.571Z,3.12
2019-05-25T13:30:25.998Z,3.40
2019-05-25T13:32:32.502Z,3.30
2019-05-25T13:34:38.917Z,3.33
2019-05-25T13:36:45.794Z,3.20
2019-05-25T13:38:52.292Z,3.37
2019-05-25T13:40:58.727Z,3.60
2019-05-25T13:43:05.204Z,3.15
2019-05-25T13:45:11.781Z,3.50
2019-05-25T13:47:18.250Z,3.20
2019-05-25T13:49:24.674Z,3.17
2019-05-25T13:51:31.079Z,3.25
2019-05-25T13:53:37.513Z,3.30
2019-05-25T13:55:43.926Z,3.85
2019-05-25T13:57:51.338Z,3.90
2019-05-25T13:59:57.719Z,3.10
2019-05-25T14:02:04.269Z,3.20
2019-05-25T14:04:10.788Z,3.75
2019-05-25T14:06:17.170Z,3.55
2019-05-25T14:08:23.601Z,3.40
2019-05-25T14:10:30.029Z,3.72
2019-05-25T14:12:36.428Z,4.30
2019-05-25T14:14:42.924Z,3.95
2019-05-25T14:16:49.293Z,4.85
2019-05-25T14:18:55.704Z,3.90
2019-05-25T14:21:02.186Z,3.90
2019-05-25T14:23:08.664Z,4.90
2019-05-25T14:25:15.271Z,4.20
2019-05-25T14:27:22.039Z,3.77
2019-05-25T14:29:28.466Z,4.80
2019-05-25T14:31:44.952Z,4.17
2019-05-25T14:33:43.090Z,4.67
2019-05-25T14:35:49.491Z,4.70
2019-05-25T14:37:57.372Z,4.37
2019-05-25T14:40:05.685Z,4.95
2019-05-25T14:42:12.077Z,4.37
2019-05-25T14:44:18.500Z,4.37
2019-05-25T14:46:27.801Z,4.85
2019-05-25T14:48:33.058Z,4.30
2019-05-25T14:50:42.441Z,5.35
2019-05-25T14:52:48.891Z,5.15
2019-05-25T14:54:55.269Z,4.78
2019-05-25T14:57:03.441Z,4.92
2019-05-25T14:59:10.001Z,4.70
2019-05-25T15:01:16.561Z,4.62
2019-05-25T15:03:24.612Z,5.28
2019-05-25T15:05:31.153Z,4.45
2019-05-25T15:07:37.657Z,5.28
2019-05-25T15:09:44.119Z,4.75
2019-05-25T15:11:53.807Z,4.47
2019-05-25T15:13:58.773Z,5.25
2019-05-25T15:16:05.381Z,5.37
2019-05-25T15:18:11.801Z,5.67
2019-05-25T15:20:19.800Z,5.25
2019-05-25T15:22:26.169Z,4.80
2019-05-25T15:24:32.555Z,4.55
2019-05-25T15:26:38.988Z,5.22
2019-05-25T15:28:45.590Z,4.90
2019-05-25T15:30:52.048Z,5.87
2019-05-25T15:32:58.445Z,5.03
2019-05-25T15:35:08.671Z,4.95
2019-05-25T15:37:15.040Z,4.92
2019-05-25T15:39:21.418Z,5.22
2019-05-25T15:41:27.892Z,4.40
2019-05-25T15:43:34.394Z,4.72
2019-05-25T15:45:40.945Z,4.72
2019-05-25T15:47:47.335Z,4.70
2019-05-25T15:49:54.812Z,5.05
2019-05-25T15:52:01.261Z,4.67
2019-05-25T15:54:10.624Z,4.33
2019-05-25T15:56:16.115Z,4.35
2019-05-25T15:58:22.630Z,3.80
2019-05-25T16:00:52.007Z,3.77
2019-05-25T16:02:58.442Z,4.00
2019-05-25T16:05:07.569Z,4.10
2019-05-25T16:07:15.166Z,3.90
2019-05-25T16:09:21.714Z,3.40
2019-05-25T16:11:31.983Z,4.03
2019-05-25T16:13:37.186Z,4.30
2019-05-25T16:15:43.700Z,3.50
2019-05-25T16:17:50.355Z,3.67
2019-05-25T16:19:56.711Z,4.00
2019-05-25T16:22:03.229Z,3.58
2019-05-25T16:24:09.727Z,3.20
2019-05-25T16:26:16.148Z,3.30
2019-05-25T16:28:22.742Z,3.60
2019-05-25T16:30:31.362Z,3.20
2019-05-25T16:33:09.919Z,3.25
2019-05-25T16:34:45.470Z,2.80
2019-05-25T16:37:04.450Z,2.75
2019-05-25T16:39:10.913Z,2.70
2019-05-25T16:41:17.423Z,2.47
2019-05-25T16:43:23.917Z,2.67
2019-05-25T16:45:30.595Z,2.52
2019-05-25T16:47:37.388Z,2.40
2019-05-25T16:49:43.758Z,2.65
2019-05-25T16:51:50.138Z,2.47
2019-05-25T16:53:56.580Z,2.05
2019-05-25T16:56:03.013Z,2.75
2019-05-25T16:58:09.434Z,2.15
2019-05-25T17:00:26.743Z,2.83
2019-05-25T17:02:33.104Z,2.33
2019-05-25T17:04:40.918Z,2.58
2019-05-25T17:06:47.305Z,2.72
2019-05-25T17:08:56.181Z,2.80
2019-05-25T17:11:01.973Z,2.92
2019-05-25T17:13:08.430Z,3.70
2019-05-25T17:15:14.841Z,2.60
2019-05-25T17:17:21.237Z,2.33
2019-05-25T17:19:27.613Z,2.40
2019-05-25T17:21:33.991Z,2.65
2019-05-25T17:23:40.431Z,2.47
2019-05-25T17:25:46.873Z,2.67
2019-05-25T17:27:53.303Z,2.20
2019-05-25T17:29:59.808Z,2.40
2019-05-25T17:32:07.025Z,2.87
2019-05-25T17:34:13.848Z,2.60
2019-05-25T17:36:20.213Z,2.65
2019-05-25T17:38:26.733Z,2.40
2019-05-25T17:40:33.323Z,2.62
2019-05-25T17:42:39.757Z,2.52
2019-05-25T17:44:46.167Z,2.70
2019-05-25T17:46:52.644Z,2.60
2019-05-25T17:48:59.079Z,2.60
2019-05-25T17:51:06.898Z,2.52
2019-05-25T17:53:13.426Z,3.35
2019-05-25T17:55:24.037Z,2.55
2019-05-25T17:57:30.530Z,3.10
2019-05-25T17:59:36.974Z,2.80
2019-05-25T18:01:43.405Z,2.83
2019-05-25T18:04:05.635Z,3.12
2019-05-25T18:05:58.202Z,3.15
2019-05-25T18:08:05.939Z,2.95
2019-05-25T18:12:19.268Z,2.92
2019-05-25T18:14:25.696Z,2.83
2019-05-25T18:16:32.119Z,3.10
2019-05-25T18:18:38.576Z,2.70
2019-05-25T18:20:45.059Z,2.62
2019-05-25T18:22:51.675Z,3.08
2019-05-25T18:24:58.039Z,3.25
2019-05-25T18:27:04.737Z,3.35
2019-05-25T18:29:11.243Z,3.10
2019-05-25T18:31:17.724Z,3.30
2019-05-25T18:33:24.234Z,3.20
2019-05-25T18:35:30.862Z,3.33
2019-05-25T18:37:37.360Z,3.45
2019-05-25T18:39:43.775Z,3.47
2019-05-25T18:41:50.281Z,3.12
2019-05-25T18:43:56.660Z,3.40
2019-05-25T18:46:05.271Z,3.30
2019-05-25T18:48:11.658Z,3.90
2019-05-25T18:50:18.888Z,3.05
2019-05-25T18:52:25.286Z,3.50
2019-05-25T18:54:31.814Z,3.30
2019-05-25T18:56:38.226Z,3.52
2019-05-25T18:58:44.658Z,3.55
2019-05-25T19:00:51.181Z,3.45
2019-05-25T19:02:57.597Z,3.85
2019-05-25T19:05:05.163Z,3.58
2019-05-25T19:07:11.675Z,3.80
2019-05-25T19:09:18.060Z,3.10
2019-05-25T19:11:24.666Z,3.58
2019-05-25T19:13:31.164Z,4.20
2019-05-25T19:15:37.976Z,3.72
2019-05-25T19:17:44.455Z,3.77
2019-05-25T19:19:50.881Z,4.55
2019-05-25T19:21:57.374Z,3.98
2019-05-25T19:24:03.765Z,4.40
2019-05-25T19:26:10.298Z,4.17
2019-05-25T19:28:16.748Z,3.92
2019-05-25T19:30:24.198Z,4.28
2019-05-25T19:32:32.020Z,4.25
2019-05-25T19:34:38.484Z,4.15
2019-05-25T19:36:44.882Z,4.22
2019-05-25T19:38:51.288Z,4.00
2019-05-25T19:40:57.774Z,3.70
2019-05-25T19:43:04.490Z,4.17
2019-05-25T19:45:13.197Z,4.10
2019-05-25T19:47:19.653Z,4.05
2019-05-25T19:49:26.140Z,4.37
2019-05-25T19:51:32.564Z,4.37
2019-05-25T19:53:39.074Z,4.28
2019-05-25T19:55:45.514Z,4.92
2019-05-25T19:57:51.945Z,4.90
2019-05-25T19:59:59.547Z,4.90
2019-05-25T20:02:06.149Z,4.45
2019-05-25T20:04:12.566Z,5.15
2019-05-25T20:06:18.972Z,4.33
2019-05-25T20:08:25.364Z,4.45
2019-05-25T20:10:32.492Z,4.62
2019-05-25T20:12:38.904Z,4.50
2019-05-25T20:14:45.387Z,5.28
2019-05-25T20:16:51.836Z,4.62
2019-05-25T20:18:58.287Z,4.40
2019-05-25T20:21:04.735Z,4.80
2019-05-25T20:23:12.239Z,4.92
2019-05-25T20:25:18.918Z,5.12
2019-05-25T20:27:25.355Z,4.97
2019-05-25T20:29:31.860Z,4.60
2019-05-25T20:31:38.344Z,5.42
2019-05-25T20:33:44.791Z,5.35
2019-05-25T20:35:51.187Z,5.12
2019-05-25T20:37:57.610Z,5.53
2019-05-25T20:40:05.745Z,5.33
2019-05-25T20:42:14.987Z,5.40
2019-05-25T20:44:20.519Z,5.77
2019-05-25T20:46:27.020Z,5.60
2019-05-25T20:48:33.472Z,5.50
2019-05-25T20:50:39.944Z,5.65
2019-05-25T20:52:46.435Z,6.40
2019-05-25T20:54:52.842Z,5.83
2019-05-25T20:56:59.233Z,5.70
2019-05-25T20:59:06.178Z,6.37
2019-05-25T21:01:12.729Z,5.85
2019-05-25T21:03:19.348Z,5.85
2019-05-25T21:05:25.803Z,5.87
2019-05-25T21:07:32.365Z,5.85
2019-05-25T21:09:38.768Z,4.72
2019-05-25T21:11:45.199Z,4.87
2019-05-25T21:13:51.676Z,5.08
2019-05-25T21:15:58.101Z,4.40
2019-05-25T21:18:04.695Z,4.35
2019-05-25T21:20:14.792Z,5.37
2019-05-25T21:22:21.199Z,4.75
2019-05-25T21:24:27.665Z,4.80
2019-05-25T21:26:34.370Z,4.60
2019-05-25T21:28:40.785Z,4.85
2019-05-25T21:30:47.707Z,4.65
2019-05-25T21:32:54.128Z,4.75
2019-05-25T21:35:00.512Z,5.10
2019-05-25T21:37:06.891Z,4.97
2019-05-25T21:39:14.155Z,5.00
2019-05-25T21:41:21.082Z,5.12
2019-05-25T21:43:27.513Z,5.00
2019-05-25T21:45:33.996Z,5.10
2019-05-25T21:47:40.366Z,4.35
2019-05-25T21:49:46.863Z,4.83
2019-05-25T21:51:53.641Z,5.17
2019-05-25T21:54:00.056Z,5.00
2019-05-25T21:56:08.327Z,4.53
2019-05-25T21:58:14.739Z,5.30
2019-05-25T22:00:23.390Z,5.00
2019-05-25T22:03:09.606Z,5.22
2019-05-25T22:05:16.434Z,4.90
2019-05-25T22:07:23.128Z,5.05
2019-05-25T22:09:29.804Z,5.03
2019-05-25T22:11:36.762Z,4.92
2019-05-25T22:13:43.492Z,5.08
2019-05-25T22:15:50.242Z,4.80
2019-05-25T22:17:56.938Z,4.67
2019-05-25T22:20:04.766Z,4.87
2019-05-25T22:22:11.420Z,5.30
2019-05-25T22:24:18.075Z,5.08
2019-05-25T22:26:24.831Z,5.33
2019-05-25T22:28:44.213Z,4.30
2019-05-25T22:30:41.016Z,4.60
2019-05-25T22:32:47.710Z,4.30
2019-05-25T22:34:54.439Z,4.80
2019-05-25T22:37:01.346Z,7.17
2019-05-25T22:39:10.887Z,6.00
2019-05-25T22:41:19.936Z,5.40
2019-05-25T22:43:26.977Z,5.00
2019-05-25T22:45:33.842Z,5.22
2019-05-25T22:47:40.605Z,4.95
2019-05-25T22:49:47.280Z,5.65
2019-05-25T22:51:53.940Z,5.70
2019-05-25T22:54:00.584Z,5.78
2019-05-25T22:56:07.350Z,5.90
2019-05-25T22:58:14.019Z,6.25
2019-05-25T23:00:20.818Z,6.25
2019-05-25T23:02:27.191Z,6.45
2019-05-25T23:05:07.245Z,6.45
2019-05-25T23:07:14.407Z,6.60
2019-05-25T23:09:20.866Z,7.28
2019-05-25T23:11:27.311Z,6.35
2019-05-25T23:13:33.814Z,6.03
2019-05-25T23:15:40.253Z,6.42
2019-05-25T23:17:46.653Z,6.92
2019-05-25T23:19:53.097Z,6.75
2019-05-25T23:22:00.229Z,6.37
2019-05-25T23:24:06.804Z,6.97
2019-05-25T23:26:13.293Z,6.87
2019-05-25T23:28:19.765Z,6.35
2019-05-25T23:30:27.857Z,6.67
2019-05-25T23:32:34.565Z,7.03
2019-05-25T23:34:40.980Z,7.00
2019-05-25T23:36:47.529Z,8.05
2019-05-25T23:38:53.941Z,7.97
2019-05-25T23:41:00.318Z,9.08
2019-05-25T23:43:08.026Z,9.70
2019-05-25T23:45:16.864Z,8.93
2019-05-25T23:47:23.338Z,9.58
2019-05-25T23:49:29.731Z,9.45
2019-05-25T23:51:37.447Z,8.93
2019-05-25T23:53:43.836Z,10.35
2019-05-25T23:55:50.286Z,9.38
2019-05-25T23:57:56.785Z,9.93
